createdAt,value
2017-11-15T00:01:07.220Z,9.07
2017-11-15T00:03:34.730Z,8.40
2017-11-15T00:06:02.218Z,7.40
2017-11-15T00:08:29.704Z,7.40
2017-11-15T00:10:57.948Z,8.73
2017-11-15T00:13:25.528Z,9.63
2017-11-15T00:15:53.870Z,8.90
2017-11-15T00:18:21.425Z,7.67
2017-11-15T00:20:48.887Z,7.32
2017-11-15T00:23:16.362Z,7.43
2017-11-15T00:25:43.895Z,8.77
2017-11-15T00:28:11.360Z,6.95
2017-11-15T00:30:38.831Z,8.67
2017-11-15T00:33:06.369Z,8.13
2017-11-15T00:35:33.843Z,7.10
2017-11-15T00:38:01.338Z,8.55
2017-11-15T00:40:28.823Z,7.15
2017-11-15T00:42:56.410Z,10.43
2017-11-15T00:45:24.902Z,8.32
2017-11-15T00:47:52.528Z,6.78
2017-11-15T00:50:23.464Z,7.50
2017-11-15T00:52:51.505Z,10.85
2017-11-15T00:55:19.283Z,8.20
2017-11-15T00:57:46.842Z,7.07
2017-11-15T01:00:14.372Z,6.70
2017-11-15T01:02:42.618Z,8.00
2017-11-15T01:05:10.124Z,7.80
2017-11-15T01:07:37.874Z,7.07
2017-11-15T01:10:06.116Z,6.65
2017-11-15T01:12:33.770Z,7.75
2017-11-15T01:15:01.321Z,7.07
2017-11-15T01:17:28.813Z,7.43
2017-11-15T01:19:56.287Z,7.63
2017-11-15T01:22:23.791Z,7.43
2017-11-15T01:24:51.328Z,7.60
2017-11-15T01:27:19.000Z,8.45
2017-11-15T01:29:46.534Z,7.70
2017-11-15T01:32:14.012Z,6.85
2017-11-15T01:34:41.507Z,8.88
2017-11-15T01:37:09.004Z,8.77
2017-11-15T01:39:36.481Z,7.15
2017-11-15T01:42:04.171Z,7.10
2017-11-15T01:44:32.047Z,7.22
2017-11-15T01:46:59.680Z,6.70
2017-11-15T01:49:27.162Z,9.57
2017-11-15T01:51:54.626Z,6.45
2017-11-15T01:54:22.115Z,7.23
2017-11-15T01:56:49.591Z,9.18
2017-11-15T01:59:17.283Z,8.55
2017-11-15T02:01:44.860Z,11.85
2017-11-15T02:04:12.333Z,7.17
2017-11-15T02:06:40.592Z,7.95
2017-11-15T02:09:08.063Z,6.20
2017-11-15T02:11:36.318Z,7.37
2017-11-15T02:14:03.821Z,7.10
2017-11-15T02:16:31.308Z,7.28
2017-11-15T02:18:58.885Z,5.80
2017-11-15T02:21:26.457Z,7.70
2017-11-15T02:23:54.810Z,6.72
2017-11-15T02:26:22.272Z,7.18
2017-11-15T02:28:49.755Z,7.30
2017-11-15T02:31:17.227Z,8.40
2017-11-15T02:33:44.919Z,6.30
2017-11-15T02:36:12.602Z,6.47
2017-11-15T02:38:40.309Z,5.93
2017-11-15T02:41:07.853Z,5.75
2017-11-15T02:43:36.107Z,6.50
2017-11-15T02:46:03.598Z,6.07
2017-11-15T02:48:31.860Z,5.60
2017-11-15T02:50:59.343Z,5.30
2017-11-15T02:53:27.656Z,7.37
2017-11-15T02:55:55.156Z,5.12
2017-11-15T02:58:23.584Z,5.15
2017-11-15T03:00:51.155Z,5.43
2017-11-15T03:03:18.616Z,6.05
2017-11-15T03:05:46.091Z,5.00
2017-11-15T03:08:13.583Z,6.15
2017-11-15T03:10:41.142Z,5.28
2017-11-15T03:13:08.731Z,5.35
2017-11-15T03:15:36.291Z,6.10
2017-11-15T03:18:03.767Z,7.15
2017-11-15T03:20:31.262Z,5.18
2017-11-15T03:22:59.521Z,5.43
2017-11-15T03:25:27.012Z,6.78
2017-11-15T03:27:54.561Z,8.02
2017-11-15T03:30:22.345Z,7.43
2017-11-15T03:32:49.880Z,6.35
2017-11-15T03:35:17.376Z,4.43
2017-11-15T03:37:44.860Z,6.35
2017-11-15T03:40:12.377Z,5.00
2017-11-15T03:42:40.031Z,5.07
2017-11-15T03:45:07.755Z,5.93
2017-11-15T03:47:35.287Z,6.28
2017-11-15T03:50:02.759Z,5.78
2017-11-15T03:52:30.230Z,5.15
2017-11-15T03:54:58.479Z,6.03
2017-11-15T03:57:26.032Z,4.90
2017-11-15T03:59:53.540Z,4.82
2017-11-15T04:02:21.128Z,7.00
2017-11-15T04:04:48.607Z,5.47
2017-11-15T04:07:16.092Z,5.05
2017-11-15T04:09:43.562Z,7.50
2017-11-15T04:12:11.826Z,6.07
2017-11-15T04:14:39.484Z,5.55
2017-11-15T04:17:08.499Z,5.87
2017-11-15T04:19:36.667Z,6.93
2017-11-15T04:22:05.036Z,4.95
2017-11-15T04:24:32.922Z,7.57
2017-11-15T04:27:01.433Z,5.57
2017-11-15T04:29:28.985Z,8.02
2017-11-15T04:31:56.458Z,7.28
2017-11-15T04:34:23.951Z,8.60
2017-11-15T04:36:52.206Z,5.57
2017-11-15T04:39:19.687Z,6.80
2017-11-15T04:41:48.003Z,4.57
2017-11-15T04:44:15.532Z,5.87
2017-11-15T04:46:43.917Z,6.97
2017-11-15T04:49:11.458Z,4.78
2017-11-15T04:51:38.920Z,5.85
2017-11-15T04:54:07.178Z,4.10
2017-11-15T04:56:34.651Z,4.35
2017-11-15T04:59:02.908Z,4.68
2017-11-15T05:01:30.396Z,5.15
2017-11-15T05:03:57.922Z,4.90
2017-11-15T05:06:26.456Z,7.97
2017-11-15T05:08:54.077Z,3.72
2017-11-15T05:11:21.624Z,5.60
2017-11-15T05:13:49.099Z,4.10
2017-11-15T05:16:17.351Z,4.47
2017-11-15T05:18:44.826Z,6.30
2017-11-15T05:21:13.087Z,6.25
2017-11-15T05:23:41.296Z,5.93
2017-11-15T05:26:09.132Z,7.03
2017-11-15T05:28:36.802Z,4.53
2017-11-15T05:31:05.219Z,7.65
2017-11-15T05:33:32.745Z,12.95
2017-11-15T05:36:00.987Z,8.07
2017-11-15T05:38:28.473Z,8.98
2017-11-15T05:40:56.731Z,10.65
2017-11-15T05:43:24.214Z,10.07
2017-11-15T05:45:52.503Z,11.10
2017-11-15T05:48:20.085Z,7.62
2017-11-15T05:50:47.635Z,9.30
2017-11-15T05:53:15.105Z,9.00
2017-11-15T05:55:42.605Z,8.70
2017-11-15T05:58:10.083Z,7.30
2017-11-15T06:00:38.360Z,6.55
2017-11-15T06:03:06.654Z,7.32
2017-11-15T06:05:34.267Z,11.07
2017-11-15T06:08:01.819Z,7.05
2017-11-15T06:10:29.317Z,9.48
2017-11-15T06:12:57.634Z,8.43
2017-11-15T06:15:25.137Z,8.60
2017-11-15T06:17:53.423Z,6.65
2017-11-15T06:20:21.596Z,8.73
2017-11-15T06:22:49.990Z,12.02
2017-11-15T06:25:17.616Z,6.23
2017-11-15T06:27:45.252Z,7.50
2017-11-15T06:30:12.778Z,6.32
2017-11-15T06:32:40.255Z,8.63
2017-11-15T06:35:07.808Z,8.68
2017-11-15T06:37:35.234Z,7.00
2017-11-15T06:40:02.799Z,7.20
2017-11-15T06:42:30.303Z,8.40
2017-11-15T06:44:57.881Z,8.00
2017-11-15T06:47:25.390Z,8.43
2017-11-15T06:49:52.860Z,10.23
2017-11-15T06:52:20.351Z,6.97
2017-11-15T06:54:48.620Z,8.10
2017-11-15T06:57:16.160Z,7.87
2017-11-15T06:59:43.771Z,7.10
2017-11-15T07:02:11.352Z,7.25
2017-11-15T07:04:38.833Z,7.78
2017-11-15T07:07:06.311Z,7.22
2017-11-15T07:09:34.575Z,11.45
2017-11-15T07:12:02.065Z,7.82
2017-11-15T07:14:30.519Z,12.10
2017-11-15T07:16:58.173Z,10.85
2017-11-15T07:19:26.013Z,9.63
2017-11-15T07:21:53.494Z,9.32
2017-11-15T07:24:21.028Z,10.88
2017-11-15T07:26:48.524Z,46.08
2017-11-15T07:29:16.784Z,31.62
2017-11-15T07:31:44.299Z,30.83
2017-11-15T07:34:11.911Z,36.42
2017-11-15T07:36:39.503Z,29.70
2017-11-15T07:39:07.766Z,23.90
2017-11-15T07:41:36.013Z,17.65
2017-11-15T07:44:03.528Z,12.13
2017-11-15T07:46:31.005Z,28.65
2017-11-15T07:48:58.615Z,17.70
2017-11-15T07:51:26.882Z,14.20
2017-11-15T07:53:55.274Z,21.65
2017-11-15T07:56:23.681Z,17.08
2017-11-15T07:58:51.223Z,17.37
2017-11-15T08:01:18.705Z,18.02
2017-11-15T08:03:46.198Z,13.62
2017-11-15T08:06:13.692Z,15.60
2017-11-15T08:08:51.988Z,17.95
2017-11-15T08:11:20.245Z,13.30
2017-11-15T08:13:47.724Z,11.30
2017-11-15T08:16:15.297Z,10.55
2017-11-15T08:18:42.874Z,12.37
2017-11-15T08:21:10.404Z,14.47
2017-11-15T08:23:37.917Z,9.95
2017-11-15T08:26:05.413Z,13.20
2017-11-15T08:28:33.655Z,9.95
2017-11-15T08:31:01.148Z,12.20
2017-11-15T08:33:29.399Z,10.27
2017-11-15T08:35:57.468Z,9.93
2017-11-15T08:38:25.156Z,11.32
2017-11-15T08:40:52.852Z,10.23
2017-11-15T08:43:20.344Z,9.20
2017-11-15T08:45:47.815Z,9.48
2017-11-15T08:48:17.932Z,11.60
2017-11-15T08:50:45.415Z,12.27
2017-11-15T08:53:12.885Z,8.80
2017-11-15T08:55:40.372Z,8.75
2017-11-15T08:58:07.859Z,11.45
2017-11-15T09:00:36.271Z,13.25
2017-11-15T09:03:03.792Z,14.63
2017-11-15T09:05:31.289Z,13.30
2017-11-15T09:07:58.788Z,14.13
2017-11-15T09:10:26.256Z,9.25
2017-11-15T09:12:53.753Z,11.52
2017-11-15T09:15:21.248Z,11.00
2017-11-15T09:17:48.784Z,9.70
2017-11-15T09:20:16.259Z,14.10
2017-11-15T09:22:43.756Z,12.75
2017-11-15T09:25:11.236Z,12.80
2017-11-15T09:27:38.778Z,13.20
2017-11-15T09:30:07.132Z,13.60
2017-11-15T09:32:35.655Z,14.00
2017-11-15T09:35:03.327Z,14.60
2017-11-15T09:37:30.841Z,11.55
2017-11-15T09:39:58.328Z,14.57
2017-11-15T09:42:25.812Z,12.35
2017-11-15T09:44:53.307Z,15.30
2017-11-15T09:47:20.836Z,13.60
2017-11-15T09:49:48.555Z,12.60
2017-11-15T09:52:17.088Z,15.07
2017-11-15T09:54:44.582Z,16.33
2017-11-15T09:57:12.064Z,16.23
2017-11-15T09:59:39.559Z,15.13
2017-11-15T10:02:07.061Z,15.27
2017-11-15T10:04:35.316Z,14.63
2017-11-15T10:07:03.595Z,16.60
2017-11-15T10:09:31.260Z,11.38
2017-11-15T10:11:59.636Z,13.70
2017-11-15T10:14:27.950Z,15.80
2017-11-15T10:17:01.135Z,17.25
2017-11-15T10:19:29.477Z,14.20
2017-11-15T10:21:56.964Z,11.98
2017-11-15T10:24:24.992Z,17.05
2017-11-15T10:26:52.664Z,14.50
2017-11-15T10:29:20.219Z,14.32
2017-11-15T10:31:47.703Z,14.50
2017-11-15T10:34:15.983Z,14.85
2017-11-15T10:36:43.464Z,16.70
2017-11-15T10:39:10.986Z,16.75
2017-11-15T10:41:39.408Z,14.75
2017-11-15T10:44:07.903Z,18.77
2017-11-15T10:46:35.674Z,17.95
2017-11-15T10:49:03.209Z,14.07
2017-11-15T10:51:30.688Z,19.67
2017-11-15T10:53:58.170Z,16.62
2017-11-15T10:56:26.436Z,18.92
2017-11-15T10:58:53.960Z,16.48
2017-11-15T11:01:21.549Z,17.92
2017-11-15T11:03:49.119Z,17.80
2017-11-15T11:06:16.633Z,16.00
2017-11-15T11:08:44.103Z,17.40
2017-11-15T11:11:11.591Z,15.57
2017-11-15T11:13:39.092Z,16.12
2017-11-15T11:16:06.728Z,15.57
2017-11-15T11:18:35.567Z,13.38
2017-11-15T11:21:03.126Z,14.57
2017-11-15T11:23:30.644Z,14.82
2017-11-15T11:25:58.146Z,16.05
2017-11-15T11:28:27.480Z,18.48
2017-11-15T11:30:55.763Z,17.90
2017-11-15T11:33:24.015Z,16.65
2017-11-15T11:35:52.701Z,15.60
2017-11-15T11:38:20.201Z,15.88
2017-11-15T11:40:48.451Z,15.70
2017-11-15T11:43:16.907Z,15.07
2017-11-15T11:45:44.688Z,15.18
2017-11-15T11:48:13.821Z,16.10
2017-11-15T11:50:41.653Z,14.73
2017-11-15T11:53:10.076Z,13.05
2017-11-15T11:55:37.659Z,15.13
2017-11-15T11:58:05.171Z,15.98
2017-11-15T12:00:32.648Z,10.85
2017-11-15T12:03:00.155Z,13.23
2017-11-15T12:05:27.695Z,14.30
2017-11-15T12:07:55.204Z,12.95
2017-11-15T12:10:22.713Z,12.45
2017-11-15T12:12:50.214Z,15.07
2017-11-15T12:15:17.716Z,13.07
2017-11-15T12:17:45.199Z,12.40
2017-11-15T12:20:12.743Z,10.68
2017-11-15T12:22:41.112Z,10.63
2017-11-15T12:25:08.646Z,12.98
2017-11-15T12:27:36.172Z,12.37
2017-11-15T12:30:04.410Z,10.38
2017-11-15T12:32:31.904Z,14.52
2017-11-15T12:35:00.168Z,12.88
2017-11-15T12:37:27.740Z,9.90
2017-11-15T12:39:56.271Z,9.15
2017-11-15T12:42:24.707Z,13.10
2017-11-15T12:44:52.513Z,11.15
2017-11-15T12:47:20.973Z,9.88
2017-11-15T12:49:48.583Z,10.35
2017-11-15T12:52:16.850Z,9.10
2017-11-15T12:54:44.333Z,8.70
2017-11-15T12:57:12.584Z,10.13
2017-11-15T12:59:40.080Z,7.97
2017-11-15T13:02:07.615Z,8.20
2017-11-15T13:04:35.909Z,8.65
2017-11-15T13:07:04.216Z,9.93
2017-11-15T13:09:31.776Z,8.18
2017-11-15T13:11:59.267Z,9.90
2017-11-15T13:14:26.755Z,11.43
2017-11-15T13:16:55.013Z,11.23
2017-11-15T13:19:22.491Z,11.07
2017-11-15T13:21:50.872Z,8.13
2017-11-15T13:24:18.470Z,7.35
2017-11-15T13:26:46.026Z,7.72
2017-11-15T13:29:13.503Z,7.15
2017-11-15T13:31:41.748Z,6.75
2017-11-15T13:34:09.243Z,7.12
2017-11-15T13:36:36.732Z,7.60
2017-11-15T13:39:04.686Z,7.57
2017-11-15T13:41:33.357Z,7.32
2017-11-15T13:44:01.531Z,9.30
2017-11-15T13:46:29.110Z,8.10
2017-11-15T13:48:57.461Z,7.35
2017-11-15T13:51:25.751Z,7.32
2017-11-15T13:53:54.014Z,10.40
2017-11-15T13:56:21.498Z,6.70
2017-11-15T13:58:49.746Z,9.68
2017-11-15T14:01:17.227Z,9.75
2017-11-15T14:03:45.479Z,8.93
2017-11-15T14:06:12.975Z,7.93
2017-11-15T14:08:40.644Z,10.32
2017-11-15T14:11:08.105Z,6.87
2017-11-15T14:13:35.591Z,6.93
2017-11-15T14:16:03.079Z,7.47
2017-11-15T14:18:30.580Z,6.47
2017-11-15T14:20:58.067Z,9.43
2017-11-15T14:23:25.671Z,11.55
2017-11-15T14:25:53.261Z,7.40
2017-11-15T14:28:20.727Z,7.37
2017-11-15T14:30:48.216Z,6.50
2017-11-15T14:33:15.696Z,9.38
2017-11-15T14:35:44.714Z,8.40
2017-11-15T14:38:12.215Z,9.55
2017-11-15T14:40:39.842Z,6.65
2017-11-15T14:43:07.412Z,7.70
2017-11-15T14:45:35.716Z,6.90
2017-11-15T14:48:03.192Z,6.87
2017-11-15T14:50:31.435Z,8.15
2017-11-15T14:52:58.947Z,9.35
2017-11-15T14:55:26.464Z,7.57
2017-11-15T14:57:54.128Z,7.05
2017-11-15T15:00:21.619Z,7.28
2017-11-15T15:02:49.106Z,6.53
2017-11-15T15:05:16.597Z,8.65
2017-11-15T15:07:44.075Z,7.47
2017-11-15T15:10:12.344Z,7.20
2017-11-15T15:12:40.605Z,8.13
2017-11-15T15:15:08.123Z,6.55
2017-11-15T15:17:36.591Z,6.00
2017-11-15T15:20:04.136Z,8.27
2017-11-15T15:22:31.667Z,5.55
2017-11-15T15:24:59.171Z,6.93
2017-11-15T15:27:26.656Z,6.72
2017-11-15T15:29:54.160Z,8.35
2017-11-15T15:32:32.565Z,5.50
2017-11-15T15:35:00.813Z,6.47
2017-11-15T15:37:28.306Z,5.62
2017-11-15T15:39:55.807Z,7.30
2017-11-15T15:42:23.393Z,5.97
2017-11-15T15:44:50.911Z,5.05
2017-11-15T15:47:18.404Z,8.10
2017-11-15T15:49:45.880Z,8.57
2017-11-15T15:52:14.123Z,7.20
2017-11-15T15:54:41.695Z,5.82
2017-11-15T15:57:09.251Z,5.37
2017-11-15T15:59:37.881Z,6.32
2017-11-15T16:02:05.503Z,5.40
2017-11-15T16:04:32.990Z,6.83
2017-11-15T16:07:00.484Z,7.30
2017-11-15T16:09:27.980Z,6.28
2017-11-15T16:11:55.465Z,8.35
2017-11-15T16:14:23.584Z,5.65
2017-11-15T16:16:51.138Z,6.68
2017-11-15T16:19:19.542Z,8.15
2017-11-15T16:21:47.885Z,5.87
2017-11-15T16:24:15.353Z,9.25
2017-11-15T16:26:42.843Z,8.02
2017-11-15T16:29:11.095Z,11.32
2017-11-15T16:31:38.600Z,18.45
2017-11-15T16:34:06.100Z,17.27
2017-11-15T16:39:07.550Z,20.00
2017-11-15T16:41:35.030Z,10.68
2017-11-15T16:44:02.518Z,8.63
2017-11-15T16:46:30.786Z,7.85
2017-11-15T16:48:58.291Z,13.40
2017-11-15T16:51:25.831Z,9.38
2017-11-15T16:53:53.374Z,12.68
2017-11-15T16:56:21.789Z,8.80
2017-11-15T16:58:49.279Z,9.50
2017-11-15T17:01:16.828Z,9.60
2017-11-15T17:03:44.382Z,9.90
2017-11-15T17:06:11.959Z,8.20
2017-11-15T17:08:39.525Z,6.62
2017-11-15T17:11:07.066Z,9.15
2017-11-15T17:13:35.357Z,10.40
2017-11-15T17:16:02.844Z,9.77
2017-11-15T17:18:30.351Z,11.30
2017-11-15T17:20:57.840Z,7.53
2017-11-15T17:23:26.196Z,7.30
2017-11-15T17:25:53.855Z,8.90
2017-11-15T17:28:21.420Z,7.95
2017-11-15T17:30:48.906Z,8.90
2017-11-15T17:33:17.167Z,8.55
2017-11-15T17:35:44.724Z,6.72
2017-11-15T17:38:12.209Z,6.18
2017-11-15T17:40:39.705Z,6.35
2017-11-15T17:43:07.271Z,8.27
2017-11-15T17:45:34.861Z,7.80
2017-11-15T17:48:02.405Z,6.72
2017-11-15T17:50:29.955Z,7.00
2017-11-15T17:52:57.457Z,9.45
2017-11-15T17:55:25.267Z,7.87
2017-11-15T17:57:53.014Z,14.60
2017-11-15T18:00:20.839Z,12.35
2017-11-15T18:02:48.500Z,11.30
2017-11-15T18:05:16.123Z,14.18
2017-11-15T18:07:43.615Z,8.65
2017-11-15T18:10:11.869Z,7.65
2017-11-15T18:12:39.398Z,9.90
2017-11-15T18:15:07.755Z,8.02
2017-11-15T18:17:35.324Z,6.78
2017-11-15T18:20:02.863Z,8.07
2017-11-15T18:22:30.380Z,5.85
2017-11-15T18:24:57.860Z,7.43
2017-11-15T18:27:25.344Z,7.37
2017-11-15T18:29:52.898Z,8.02
2017-11-15T18:32:20.527Z,7.45
2017-11-15T18:34:48.956Z,6.27
2017-11-15T18:37:16.427Z,7.90
2017-11-15T18:39:43.900Z,8.50
2017-11-15T18:42:11.393Z,9.45
2017-11-15T18:44:38.892Z,8.50
2017-11-15T18:47:06.476Z,17.13
2017-11-15T18:49:34.231Z,9.32
2017-11-15T18:52:01.745Z,16.42
2017-11-15T18:54:29.242Z,7.65
2017-11-15T18:56:56.793Z,7.87
2017-11-15T18:59:25.059Z,11.25
2017-11-15T19:01:52.540Z,7.05
2017-11-15T19:04:20.052Z,8.38
2017-11-15T19:06:47.663Z,7.97
2017-11-15T19:09:16.065Z,7.73
2017-11-15T19:11:44.397Z,11.70
2017-11-15T19:14:11.879Z,9.73
2017-11-15T19:16:39.435Z,7.90
2017-11-15T19:19:06.952Z,6.67
2017-11-15T19:21:34.557Z,6.70
2017-11-15T19:24:02.124Z,7.70
2017-11-15T19:26:30.483Z,9.67
2017-11-15T19:28:58.046Z,8.95
2017-11-15T19:31:25.518Z,6.22
2017-11-15T19:33:53.789Z,6.60
2017-11-15T19:36:22.116Z,7.00
2017-11-15T19:38:49.618Z,7.07
2017-11-15T19:41:17.183Z,5.93
2017-11-15T19:43:45.558Z,7.30
2017-11-15T19:46:14.792Z,6.87
2017-11-15T19:48:42.625Z,8.50
2017-11-15T19:51:10.261Z,7.97
2017-11-15T19:53:37.873Z,8.68
2017-11-15T19:56:05.373Z,6.15
2017-11-15T19:58:32.865Z,5.97
2017-11-15T20:01:01.197Z,6.73
2017-11-15T20:03:28.688Z,8.30
2017-11-15T20:05:56.530Z,8.47
2017-11-15T20:08:24.018Z,7.00
2017-11-15T20:10:51.506Z,6.05
2017-11-15T20:13:19.399Z,9.00
2017-11-15T20:15:46.876Z,6.53
2017-11-15T20:18:14.414Z,8.48
2017-11-15T20:20:41.992Z,7.77
2017-11-15T20:23:09.553Z,6.50
2017-11-15T20:25:37.774Z,7.63
2017-11-15T20:28:06.031Z,7.90
2017-11-15T20:30:34.383Z,6.78
2017-11-15T20:33:01.971Z,6.87
2017-11-15T20:35:30.320Z,7.57
2017-11-15T20:37:57.811Z,8.07
2017-11-15T20:40:28.668Z,8.20
2017-11-15T20:42:56.153Z,7.93
2017-11-15T20:45:23.842Z,7.73
2017-11-15T20:47:51.440Z,7.20
2017-11-15T20:50:19.172Z,6.27
2017-11-15T20:52:47.560Z,9.82
2017-11-15T20:55:15.967Z,10.47
2017-11-15T20:57:43.500Z,8.32
2017-11-15T21:00:11.771Z,8.25
2017-11-15T21:02:40.025Z,6.77
2017-11-15T21:05:07.508Z,9.02
2017-11-15T21:07:35.854Z,6.40
2017-11-15T21:10:03.696Z,7.25
2017-11-15T21:12:31.499Z,6.35
2017-11-15T21:14:59.151Z,6.87
2017-11-15T21:17:26.690Z,6.93
2017-11-15T21:19:54.279Z,7.95
2017-11-15T21:22:23.582Z,6.30
2017-11-15T21:24:51.873Z,7.70
2017-11-15T21:27:20.114Z,6.28
2017-11-15T21:29:47.701Z,6.30
2017-11-15T21:32:15.957Z,7.73
2017-11-15T21:34:53.522Z,6.00
2017-11-15T21:37:21.043Z,5.43
2017-11-15T21:39:48.568Z,5.90
2017-11-15T21:42:16.200Z,6.17
2017-11-15T21:44:43.675Z,6.00
2017-11-15T21:47:11.158Z,6.20
2017-11-15T21:49:39.398Z,5.53
2017-11-15T21:52:07.819Z,6.40
2017-11-15T21:54:36.051Z,6.37
2017-11-15T21:57:03.543Z,5.35
2017-11-15T21:59:31.812Z,5.80
2017-11-15T22:02:00.059Z,4.35
2017-11-15T22:04:27.617Z,4.97
2017-11-15T22:06:55.168Z,6.50
2017-11-15T22:09:22.639Z,5.28
2017-11-15T22:11:50.125Z,6.70
2017-11-15T22:14:18.381Z,4.82
2017-11-15T22:16:45.853Z,6.23
2017-11-15T22:19:14.124Z,4.55
2017-11-15T22:21:41.710Z,5.03
2017-11-15T22:24:09.330Z,4.12
2017-11-15T22:26:36.955Z,4.95
2017-11-15T22:29:04.431Z,4.00
2017-11-15T22:31:31.908Z,4.18
2017-11-15T22:33:59.426Z,4.82
2017-11-15T22:36:26.923Z,4.43
2017-11-15T22:38:54.626Z,4.90
2017-11-15T22:41:22.187Z,4.32
2017-11-15T22:43:49.658Z,3.80
2017-11-15T22:46:17.161Z,4.17
2017-11-15T22:48:45.416Z,4.27
2017-11-15T22:51:12.916Z,4.45
2017-11-15T22:53:41.183Z,3.55
2017-11-15T22:56:09.492Z,4.83
2017-11-15T22:58:37.101Z,3.97
2017-11-15T23:01:04.640Z,5.78
2017-11-15T23:03:32.161Z,4.12
2017-11-15T23:05:59.626Z,3.70
2017-11-15T23:08:27.123Z,4.47
2017-11-15T23:10:54.749Z,4.35
2017-11-15T23:13:23.385Z,4.80
2017-11-15T23:16:02.425Z,3.80
2017-11-15T23:18:30.666Z,3.80
2017-11-15T23:20:58.156Z,4.25
2017-11-15T23:23:26.410Z,4.62
2017-11-15T23:25:53.900Z,4.28
2017-11-15T23:28:21.489Z,4.15
2017-11-15T23:30:49.052Z,3.92
2017-11-15T23:33:16.513Z,4.80
2017-11-15T23:35:44.006Z,3.80
2017-11-15T23:38:11.488Z,3.95
2017-11-15T23:40:39.330Z,5.15
2017-11-15T23:43:06.959Z,4.47
2017-11-15T23:45:34.496Z,6.10
2017-11-15T23:48:01.966Z,4.50
2017-11-15T23:50:29.447Z,4.53
2017-11-15T23:52:56.941Z,4.37
2017-11-15T23:55:34.461Z,5.20
2017-11-15T23:58:01.946Z,3.53
